Monday, December 18, 2017, 2:26 PM GMT
Back to Local

CYCX, Gagetown Can-Mil

Location: , , Canada Lat: 45.833
Local Time: 2:26 PM GMT (14:26 GMT) Lon: -66.433
Time Zone: GMT Elev: 167 ft

Show me the last for .
Show Coded

Time T Td Feel RH Dir Speed Gust Alt SLP Vis Weather Sky Remarks
2017-12-18 14:00 3 -6 -6 65 230° 5 - 30.18 30.19 15 OVC120 None
2017-12-18 13:00 3 -6 -8 65 240° 6 - 30.18 30.19 15 BKN120 None
2017-12-18 12:00 1 -6 -6 70 220° 3 - 30.18 30.19 15 BKN085 None
2017-12-18 11:00 1 -6 -11 70 250° 7 - 30.19 30.20 15 FEW085 None
2017-12-18 10:00 1 -6 -12 70 260° 8 - 30.20 30.22 15 CLR None
2017-12-18 09:00 3 -6 -6 65 240° 5 - 30.20 30.21 15 CLR None
2017-12-18 08:00 3 -6 -9 65 260° 7 - 30.20 30.21 15 CLR None
2017-12-18 07:00 3 -6 -9 65 260° 7 - 30.19 30.20 15 CLR None
2017-12-18 06:00 3 -6 -10 65 260° 8 - 30.18 30.20 15 CLR None
2017-12-18 05:00 5 -6 -7 60 230° 7 - 30.18 30.19 15 CLR None
2017-12-18 04:00 3 -6 -6 65 280° 5 - 30.18 30.20 15 CLR None
2017-12-18 03:00 7 -6 -5 55 270° 7 - 30.19 30.21 15 CLR None
2017-12-18 02:00 7 -6 -5 55 280° 7 - 30.19 30.21 15 CLR None
2017-12-18 01:00 7 -6 -6 55 270° 8 - 30.20 30.21 15 CLR None
2017-12-18 00:00 9 -4 -5 55 290° 9 - 30.18 30.19 15 CLR None
2017-12-17 23:00 9 -4 -4 55 280° 8 - 30.17 30.18 15 CLR None
2017-12-17 22:00 10 -4 -2 51 300° 9 - 30.14 30.15 15 CLR None
2017-12-17 21:00 12 -4 -2 47 290° 12 - 30.12 30.14 15 CLR None
2017-12-17 20:00 14 -4 1 43 300° 10 - 30.11 30.12 15 CLR None
2017-12-17 19:00 14 -4 -3 43 290° 12 17 30.09 30.10 15 CLR None
2017-12-17 18:00 14 -4 0 43 300° 12 - 30.08 30.09 15 CLR None
2017-12-17 17:00 12 -4 -6 47 290° 15 21 30.08 30.09 15 FEW083 None
2017-12-17 16:00 10 -4 -8 51 290° 12 18 30.09 30.10 15 FEW083 None
2017-12-17 15:00 9 -4 -9 55 290° 16 - 30.11 30.12 15 FEW097 None

Support USWX by starting your Amazon purchase here.